Time;durP1;ratioP1;P1;durP2;ratioP2;P2;SDS_P1;SDS_P2;PMS_P1;PMS_P2;Temp;Humidity;BMP_temperature;BMP_pressure;BME280_temperature;BME280_humidity;BME280_pressure;Samples;Min_cycle;Max_cycle;Signal;HPM_P1;HPM_P2
2023/05/21 00:12:40;;;;;;;5.45;4.55;;;;;;;23.42;50.02;100455.97;39935044;29;20062;-75
2023/05/21 00:32:40;;;;;;;5.07;4.57;;;;;;;23.42;50.38;100455.97;39939948;29;20065;-75
2023/05/21 00:52:42;;;;;;;5.43;4.45;;;;;;;23.42;50.46;100441.91;39949501;29;20140;-76
2023/05/21 01:12:44;;;;;;;5.18;4.43;;;;;;;23.43;50.50;100444.41;39961968;29;20462;-77
2023/05/21 01:33:11;;;;;;;5.60;5.00;;;;;;;23.40;50.68;100434.13;39958197;29;20099;-75
2023/05/21 01:53:12;;;;;;;5.05;4.50;;;;;;;23.39;50.74;100435.09;39962442;29;20055;-76
2023/05/21 02:13:12;;;;;;;4.90;4.38;;;;;;;23.37;50.72;100431.75;39958506;29;20058;-75
2023/05/21 02:33:15;;;;;;;4.47;4.07;;;;;;;23.37;50.73;100423.81;39923456;29;20054;-76
2023/05/21 02:53:16;;;;;;;5.18;4.38;;;;;;;23.36;50.63;100426.59;39953179;29;20136;-76
2023/05/21 03:13:17;;;;;;;5.00;4.38;;;;;;;23.34;50.79;100422.28;40299365;24;21089;-82
2023/05/21 03:33:18;;;;;;;4.93;4.40;;;;;;;23.32;50.87;100418.91;39813990;29;20600;-84
2023/05/21 03:53:19;;;;;;;4.60;4.20;;;;;;;23.28;50.93;100433.38;39816580;29;20050;-83
2023/05/21 04:13:20;;;;;;;4.68;4.18;;;;;;;23.24;51.02;100442.53;39762314;29;20966;-83
2023/05/21 04:33:20;;;;;;;5.20;4.50;;;;;;;23.23;51.13;100447.94;39733655;29;21628;-82
2023/05/21 04:53:22;;;;;;;6.57;3.75;;;;;;;23.30;51.22;100447.31;39713730;29;20057;-77
2023/05/21 05:13:22;;;;;;;5.13;4.05;;;;;;;23.36;51.25;100427.41;39663469;29;20102;-76
2023/05/21 05:33:23;;;;;;;4.30;3.85;;;;;;;23.40;51.49;100428.84;39679366;29;20177;-76
2023/05/21 05:53:23;;;;;;;5.13;4.18;;;;;;;23.32;45.88;100429.50;39662802;29;20059;-78
2023/05/21 06:13:24;;;;;;;7.32;3.80;;;;;;;23.23;44.65;100416.22;39702455;29;20055;-80
2023/05/21 06:33:26;;;;;;;4.70;3.88;;;;;;;23.23;45.04;100393.31;39656453;29;20407;-79
2023/05/21 06:53:26;;;;;;;6.28;3.92;;;;;;;23.22;44.79;100385.50;39660237;29;20134;-74
2023/05/21 07:13:26;;;;;;;5.70;4.10;;;;;;;23.22;44.29;100380.22;39659929;29;20058;-74
2023/05/21 07:33:27;;;;;;;7.05;4.40;;;;;;;23.28;44.87;100364.69;39654237;29;20051;-71
2023/05/21 07:53:31;;;;;;;8.75;4.88;;;;;;;23.32;44.89;100370.53;39663572;29;20055;-76
2023/05/21 08:13:31;;;;;;;4.65;4.07;;;;;;;23.41;44.91;100367.09;39667769;29;20519;-74
2023/05/21 08:33:35;;;;;;;13.70;6.18;;;;;;;23.56;47.14;100372.00;39658883;29;20051;-76
2023/05/21 08:53:36;;;;;;;8.48;4.55;;;;;;;23.71;48.50;100375.13;39654295;29;20048;-76
2023/05/21 09:13:40;;;;;;;4.88;3.85;;;;;;;23.94;47.24;100354.59;39649517;29;20078;-75
2023/05/21 09:33:47;;;;;;;4.63;3.78;;;;;;;24.13;45.89;100356.38;39689209;29;20034;-76
2023/05/21 09:53:49;;;;;;;5.45;4.18;;;;;;;24.35;46.01;100359.72;39669137;29;20092;-78
2023/05/21 10:13:56;;;;;;;6.38;4.30;;;;;;;24.49;44.35;100327.53;39676273;29;20056;-77
2023/05/21 10:33:57;;;;;;;4.57;3.88;;;;;;;24.70;43.76;100318.59;39679193;29;20051;-78
2023/05/21 10:54:19;;;;;;;5.35;3.40;;;;;;;24.92;41.63;100317.41;39696725;29;20091;-78
2023/05/21 11:14:41;;;;;;;7.88;3.42;;;;;;;25.13;41.53;100295.97;39659490;29;20100;-81
2023/05/21 11:34:46;;;;;;;7.18;5.78;;;;;;;25.34;38.82;100295.75;39679094;29;21666;-78
2023/05/21 11:54:54;;;;;;;9.25;7.10;;;;;;;25.54;39.13;100291.16;39676894;29;20042;-78
2023/05/21 12:14:55;;;;;;;7.47;4.10;;;;;;;25.51;39.20;100262.31;39686441;29;20162;-79
2023/05/21 12:34:55;;;;;;;7.25;4.55;;;;;;;25.80;38.21;100245.31;39691579;29;20077;-80
2023/05/21 12:54:57;;;;;;;11.88;4.60;;;;;;;25.92;38.30;100234.50;39711040;29;20107;-77
2023/05/21 13:15:02;;;;;;;4.57;3.90;;;;;;;25.95;36.95;100218.25;39704207;29;20051;-79
2023/05/21 13:35:03;;;;;;;5.88;4.28;;;;;;;26.00;36.02;100202.69;39692814;29;20058;-79
2023/05/21 13:55:04;;;;;;;10.63;3.95;;;;;;;26.26;37.84;100178.03;39659565;29;20539;-77
2023/05/21 14:15:05;;;;;;;7.22;4.07;;;;;;;26.21;37.61;100184.63;39651391;29;20051;-78
2023/05/21 14:35:06;;;;;;;5.90;3.65;;;;;;;26.48;37.63;100166.03;39689082;29;20193;-80
2023/05/21 14:55:07;;;;;;;5.55;3.58;;;;;;;26.51;37.01;100163.03;39688430;29;20138;-81
2023/05/21 15:15:08;;;;;;;6.57;3.83;;;;;;;26.51;36.70;100145.31;39680556;29;20070;-82
2023/05/21 15:35:08;;;;;;;4.63;3.75;;;;;;;26.64;35.50;100149.31;39670461;29;20058;-83
2023/05/21 15:55:09;;;;;;;4.70;3.97;;;;;;;26.85;35.11;100143.59;39699888;29;20058;-84
2023/05/21 16:15:10;;;;;;;7.85;3.80;;;;;;;26.63;35.77;100150.31;39677405;29;1186367;-82
2023/05/21 16:35:11;;;;;;;9.07;4.03;;;;;;;26.43;37.40;100169.16;39731144;29;20080;-83
2023/05/21 16:55:15;;;;;;;17.05;4.90;;;;;;;26.25;39.05;100166.56;39687949;29;20403;-81
2023/05/21 17:15:16;;;;;;;10.80;4.38;;;;;;;26.00;39.60;100171.72;39684126;29;20043;-82
2023/05/21 17:35:16;;;;;;;8.02;4.40;;;;;;;25.82;40.09;100177.06;39703064;29;20135;-83
2023/05/21 17:55:17;;;;;;;8.27;3.88;;;;;;;25.62;40.47;100192.34;39683209;29;20049;-83
2023/05/21 18:15:18;;;;;;;12.73;4.05;;;;;;;25.49;41.58;100178.63;39664066;29;20046;-80
2023/05/21 18:35:18;;;;;;;10.75;4.40;;;;;;;25.44;42.16;100181.72;39630324;29;20051;-79
2023/05/21 18:55:19;;;;;;;8.98;4.95;;;;;;;25.41;43.85;100192.63;39639897;29;20973;-77
2023/05/21 19:15:19;;;;;;;8.27;5.15;;;;;;;25.42;44.92;100207.53;39629117;29;20038;-76
2023/05/21 19:35:21;;;;;;;20.95;8.80;;;;;;;25.48;49.12;100224.69;39577463;29;20158;-83
2023/05/21 19:55:21;;;;;;;8.90;5.93;;;;;;;25.35;47.75;100227.66;39617084;29;20035;-75
2023/05/21 20:15:22;;;;;;;11.43;6.40;;;;;;;25.06;43.71;100231.31;39646631;29;20043;-81
2023/05/21 20:35:23;;;;;;;8.23;5.85;;;;;;;24.84;43.55;100227.25;39692329;29;20060;-80
2023/05/21 20:55:24;;;;;;;11.70;5.85;;;;;;;24.70;44.05;100231.22;39697665;29;20492;-80
2023/05/21 21:15:24;;;;;;;6.75;5.78;;;;;;;24.57;43.83;100226.22;39714132;29;20228;-79
2023/05/21 21:35:25;;;;;;;9.70;5.78;;;;;;;24.48;44.18;100251.75;39703109;29;20150;-76
2023/05/21 21:55:25;;;;;;;6.63;5.20;;;;;;;24.44;44.25;100253.03;39687993;29;20043;-76
2023/05/21 22:15:29;;;;;;;9.52;5.55;;;;;;;24.35;44.19;100244.16;39686357;29;20127;-77
2023/05/21 22:35:30;;;;;;;8.07;5.05;;;;;;;24.25;43.88;100270.59;39684749;29;20096;-77
2023/05/21 22:55:30;;;;;;;10.70;4.85;;;;;;;24.11;44.00;100263.13;39685344;29;20553;-76
2023/05/21 23:15:31;;;;;;;8.57;5.20;;;;;;;24.08;44.31;100268.69;39667399;29;20419;-78
2023/05/21 23:35:31;;;;;;;7.28;5.20;;;;;;;23.98;44.44;100272.16;39667167;29;20043;-79
2023/05/21 23:55:31;;;;;;;6.60;5.05;;;;;;;23.91;44.52;100254.31;39687251;29;20074;-77
